Time;durP1;ratioP1;P1;durP2;ratioP2;P2;SDS_P1;SDS_P2;PMS_P1;PMS_P2;Temp;Humidity;BMP_temperature;BMP_pressure;BME280_temperature;BME280_humidity;BME280_pressure;Samples;Min_cycle;Max_cycle;Signal;HPM_P1;HPM_P2
2021/08/01 00:02:21;;;;;;;1.57;1.40;;;24.30;55.10;;;;;;5104800;28;20676;-70
2021/08/01 00:04:53;;;;;;;1.33;1.23;;;24.20;55.00;;;;;;5104918;28;20192;-70
2021/08/01 00:07:24;;;;;;;1.80;1.70;;;24.20;55.00;;;;;;5103950;28;20722;-71
2021/08/01 00:10:00;;;;;;;1.73;1.50;;;24.20;55.10;;;;;;5119979;27;20216;-71
2021/08/01 00:12:28;;;;;;;1.60;1.50;;;24.20;55.10;;;;;;5101777;28;20256;-71
2021/08/01 00:14:58;;;;;;;1.47;1.37;;;24.20;55.00;;;;;;5106379;28;20200;-71
2021/08/01 00:17:32;;;;;;;1.40;1.30;;;24.20;55.00;;;;;;5099015;28;20227;-71
2021/08/01 00:20:02;;;;;;;1.40;1.30;;;24.20;55.10;;;;;;5106637;28;20193;-71
2021/08/01 00:22:31;;;;;;;1.43;1.33;;;24.10;55.00;;;;;;5104145;28;20201;-70
2021/08/01 00:25:03;;;;;;;1.60;1.50;;;24.20;55.10;;;;;;5090897;28;20196;-71
2021/08/01 00:27:35;;;;;;;2.77;1.30;;;24.20;55.10;;;;;;5101617;28;20215;-71
2021/08/01 00:30:14;;;;;;;1.43;1.33;;;24.20;55.10;;;;;;5103186;28;20212;-71
2021/08/01 00:32:49;;;;;;;1.40;1.30;;;24.20;55.10;;;;;;5102661;28;20260;-71
2021/08/01 00:35:18;;;;;;;1.40;1.30;;;24.20;55.10;;;;;;5103599;28;20200;-70
2021/08/01 00:37:49;;;;;;;1.23;1.13;;;24.20;55.10;;;;;;5103039;28;20534;-70
2021/08/01 00:40:22;;;;;;;1.20;1.20;;;24.10;55.10;;;;;;5109786;28;20212;-71
2021/08/01 00:42:52;;;;;;;1.30;1.27;;;24.20;55.10;;;;;;5094350;28;20208;-71
2021/08/01 00:45:35;;;;;;;1.60;1.50;;;24.10;55.10;;;;;;5100896;28;20228;-70
2021/08/01 00:48:08;;;;;;;1.10;1.10;;;24.10;55.00;;;;;;5108818;28;20208;-71
2021/08/01 00:50:45;;;;;;;1.40;1.30;;;24.10;55.00;;;;;;5101671;28;20216;-71
2021/08/01 00:53:29;;;;;;;1.30;1.20;;;24.10;55.00;;;;;;5103350;28;20359;-70
2021/08/01 00:56:01;;;;;;;1.40;1.30;;;24.20;55.10;;;;;;5105604;28;20200;-71
2021/08/01 00:58:31;;;;;;;1.20;1.20;;;24.10;55.00;;;;;;5109862;28;20218;-71
2021/08/01 01:01:15;;;;;;;1.30;1.20;;;24.10;55.10;;;;;;5105941;28;20192;-70
2021/08/01 01:04:32;;;;;;;1.13;1.13;;;24.10;55.10;;;;;;5107263;28;20189;-71
2021/08/01 01:07:33;;;;;;;1.20;1.20;;;24.10;55.00;;;;;;5102682;28;20193;-71
2021/08/01 01:10:24;;;;;;;1.77;1.40;;;24.10;55.10;;;;;;5108481;28;20192;-70
2021/08/01 01:13:21;;;;;;;1.20;1.20;;;24.10;55.10;;;;;;5097010;28;20192;-71
2021/08/01 01:15:59;;;;;;;1.20;1.10;;;24.10;55.10;;;;;;5095680;28;20641;-70
2021/08/01 01:18:40;;;;;;;1.27;1.20;;;24.10;55.10;;;;;;5104066;28;20709;-71
2021/08/01 01:21:22;;;;;;;1.13;1.13;;;24.10;55.10;;;;;;5111127;27;20207;-71
2021/08/01 01:24:09;;;;;;;1.40;1.30;;;24.10;55.10;;;;;;5101395;28;20274;-71
2021/08/01 01:27:04;;;;;;;1.40;1.30;;;24.10;55.10;;;;;;5110455;28;20189;-70
2021/08/01 01:30:01;;;;;;;1.00;1.00;;;24.10;55.10;;;;;;5104890;28;20551;-71
2021/08/01 01:32:49;;;;;;;1.30;1.20;;;24.00;55.10;;;;;;5103551;28;20587;-72
2021/08/01 01:35:19;;;;;;;1.37;1.27;;;24.10;55.10;;;;;;5109739;28;20220;-71
2021/08/01 01:37:52;;;;;;;1.30;1.20;;;24.00;55.10;;;;;;5085653;28;20209;-71
2021/08/01 01:40:26;;;;;;;1.20;1.20;;;24.00;55.10;;;;;;5110046;28;20196;-70
2021/08/01 01:42:57;;;;;;;1.53;1.43;;;24.00;55.10;;;;;;5103382;28;20196;-70
2021/08/01 01:45:29;;;;;;;1.20;1.10;;;24.00;55.10;;;;;;5109158;28;20232;-71
2021/08/01 01:48:02;;;;;;;1.20;1.10;;;24.00;55.20;;;;;;5096085;28;20211;-71
2021/08/01 01:50:35;;;;;;;1.47;1.37;;;24.00;55.20;;;;;;5108195;28;20197;-70
2021/08/01 01:53:07;;;;;;;1.40;1.23;;;24.00;55.10;;;;;;5100437;28;20723;-70
2021/08/01 01:55:46;;;;;;;1.10;1.10;;;24.00;55.20;;;;;;5109555;28;20199;-70
2021/08/01 01:58:17;;;;;;;1.30;1.20;;;24.00;55.10;;;;;;5104912;28;20204;-70
2021/08/01 02:00:49;;;;;;;1.40;1.30;;;24.00;55.10;;;;;;5103118;28;20278;-71
2021/08/01 02:03:22;;;;;;;1.30;1.20;;;24.00;55.20;;;;;;5099494;28;20604;-70
2021/08/01 02:06:03;;;;;;;1.23;1.13;;;24.00;55.20;;;;;;5103650;28;20637;-71
2021/08/01 02:08:43;;;;;;;1.30;1.20;;;24.00;55.20;;;;;;5109321;28;20680;-71
2021/08/01 02:11:17;;;;;;;1.20;1.20;;;24.00;55.20;;;;;;5090257;28;20682;-70
2021/08/01 02:14:02;;;;;;;1.23;1.17;;;24.00;55.20;;;;;;5106574;28;20206;-70
2021/08/01 02:16:34;;;;;;;1.10;1.10;;;24.00;55.20;;;;;;5102659;28;20605;-71
2021/08/01 02:19:10;;;;;;;1.53;1.30;;;24.00;55.20;;;;;;5099976;28;20215;-71
2021/08/01 02:21:42;;;;;;;1.23;1.23;;;24.00;55.20;;;;;;5105294;28;20204;-71
2021/08/01 02:24:20;;;;;;;1.17;1.10;;;24.00;55.20;;;;;;5101924;28;20185;-70
2021/08/01 02:26:52;;;;;;;1.50;1.40;;;24.00;55.30;;;;;;5102661;28;20192;-71
2021/08/01 02:29:25;;;;;;;1.40;1.30;;;24.00;55.30;;;;;;5098508;28;20205;-70
2021/08/01 02:31:55;;;;;;;1.57;1.30;;;24.00;55.20;;;;;;5104299;28;20226;-70
2021/08/01 02:34:27;;;;;;;1.10;1.10;;;24.00;55.20;;;;;;5099502;28;20228;-71
2021/08/01 02:36:57;;;;;;;1.20;1.20;;;24.00;55.20;;;;;;5105200;28;20293;-71
2021/08/01 02:39:32;;;;;;;1.40;1.30;;;24.00;55.30;;;;;;5104962;28;20228;-71
2021/08/01 02:42:04;;;;;;;1.50;1.40;;;24.00;55.20;;;;;;5110304;27;20288;-71
2021/08/01 02:44:48;;;;;;;1.07;1.07;;;24.00;55.20;;;;;;5101767;28;20238;-71
2021/08/01 02:47:22;;;;;;;1.30;1.20;;;23.90;55.20;;;;;;5101986;28;20253;-71
2021/08/01 02:49:55;;;;;;;1.30;1.20;;;24.00;55.30;;;;;;5099158;28;20192;-71
2021/08/01 02:52:38;;;;;;;1.50;1.40;;;23.90;55.20;;;;;;5102126;28;20200;-71
2021/08/01 02:55:12;;;;;;;1.87;1.30;;;24.00;55.30;;;;;;5108221;28;20558;-70
2021/08/01 02:57:54;;;;;;;1.20;1.20;;;23.90;55.30;;;;;;5088698;28;20283;-71
2021/08/01 03:00:28;;;;;;;1.30;1.20;;;23.90;55.30;;;;;;5107394;28;20200;-71
2021/08/01 03:03:06;;;;;;;1.47;1.20;;;23.90;55.20;;;;;;5106984;28;20286;-71
2021/08/01 03:05:42;;;;;;;1.43;1.33;;;23.90;55.30;;;;;;5104361;28;20196;-70
2021/08/01 03:08:13;;;;;;;0.97;0.97;;;23.90;55.30;;;;;;5098452;28;20515;-70
2021/08/01 03:10:52;;;;;;;1.57;1.47;;;23.90;55.90;;;;;;5096309;28;20216;-70
2021/08/01 03:13:22;;;;;;;1.10;1.10;;;23.90;55.40;;;;;;5099298;28;20204;-71
2021/08/01 03:15:52;;;;;;;1.33;1.23;;;23.90;55.30;;;;;;5102322;28;20196;-71
2021/08/01 03:18:24;;;;;;;1.50;1.40;;;23.90;55.30;;;;;;5090068;28;20225;-71
2021/08/01 03:20:56;;;;;;;1.50;1.40;;;23.90;55.30;;;;;;5101788;28;21688;-70
2021/08/01 03:23:27;;;;;;;1.50;1.40;;;23.90;55.30;;;;;;5090538;28;20254;-71
2021/08/01 03:25:57;;;;;;;1.50;1.40;;;23.90;55.30;;;;;;5101081;28;20449;-70
2021/08/01 03:28:27;;;;;;;1.00;1.00;;;23.90;55.40;;;;;;5104998;28;20201;-70
2021/08/01 03:31:01;;;;;;;1.60;1.50;;;23.90;55.30;;;;;;5095581;28;20223;-71
2021/08/01 03:33:31;;;;;;;1.40;1.30;;;23.90;55.30;;;;;;5095603;28;20503;-70
2021/08/01 03:36:05;;;;;;;1.27;1.17;;;23.90;55.30;;;;;;5098122;28;20205;-70
2021/08/01 03:38:36;;;;;;;1.40;1.30;;;23.90;55.40;;;;;;5107453;28;20220;-71
2021/08/01 03:41:09;;;;;;;1.40;1.30;;;23.90;55.40;;;;;;5099942;28;20200;-70
2021/08/01 03:43:45;;;;;;;1.20;1.20;;;23.90;55.40;;;;;;5100820;28;20212;-71
2021/08/01 03:46:14;;;;;;;1.10;1.10;;;23.80;55.30;;;;;;5104642;28;20293;-71
2021/08/01 03:48:43;;;;;;;1.23;1.13;;;23.90;55.40;;;;;;5102596;28;20238;-71
2021/08/01 03:51:15;;;;;;;1.27;1.10;;;23.80;55.30;;;;;;5096032;28;20242;-71
2021/08/01 03:53:45;;;;;;;1.53;1.43;;;23.80;55.30;;;;;;5098546;28;20205;-71
2021/08/01 03:56:15;;;;;;;1.10;1.10;;;23.80;55.40;;;;;;5112913;28;20198;-70
2021/08/01 03:58:45;;;;;;;1.20;1.10;;;23.80;55.40;;;;;;5099338;28;20606;-70
2021/08/01 04:01:16;;;;;;;1.20;1.20;;;23.80;55.30;;;;;;5114406;28;20220;-70
2021/08/01 04:03:48;;;;;;;1.10;1.07;;;23.80;55.30;;;;;;5101489;28;20213;-71
2021/08/01 04:06:21;;;;;;;1.30;1.20;;;23.80;55.30;;;;;;5116876;28;21575;-71
2021/08/01 04:08:55;;;;;;;1.40;1.30;;;23.80;55.30;;;;;;5101134;28;20672;-71
2021/08/01 04:11:46;;;;;;;1.40;1.30;;;23.80;55.30;;;;;;5107897;28;20268;-71
2021/08/01 04:14:17;;;;;;;1.67;1.57;;;23.80;55.20;;;;;;5106294;28;20581;-69
2021/08/01 04:16:50;;;;;;;1.40;1.30;;;23.80;55.20;;;;;;5100041;28;20196;-70
2021/08/01 04:19:21;;;;;;;1.50;1.40;;;23.80;55.20;;;;;;5104970;28;20266;-71
2021/08/01 04:21:50;;;;;;;1.30;1.20;;;23.80;55.20;;;;;;5099500;28;20230;-70
2021/08/01 04:24:22;;;;;;;1.50;1.40;;;23.80;55.20;;;;;;5105417;28;20210;-70
2021/08/01 04:26:51;;;;;;;1.40;1.30;;;23.80;55.20;;;;;;5095207;28;20185;-70
2021/08/01 04:29:25;;;;;;;1.40;1.30;;;23.80;55.20;;;;;;5098681;28;20235;-70
2021/08/01 04:31:58;;;;;;;1.50;1.40;;;23.80;55.20;;;;;;5084618;28;20216;-70
2021/08/01 04:34:29;;;;;;;1.40;1.30;;;23.80;55.20;;;;;;5104903;28;20219;-71
2021/08/01 04:36:59;;;;;;;1.30;1.20;;;23.80;55.10;;;;;;5096665;28;20370;-71
2021/08/01 04:39:33;;;;;;;1.50;1.30;;;23.80;55.20;;;;;;5106472;28;20212;-71
2021/08/01 04:42:12;;;;;;;1.30;1.20;;;23.80;55.10;;;;;;5097708;28;20203;-71
2021/08/01 04:44:42;;;;;;;1.50;1.40;;;23.80;55.20;;;;;;5102478;28;20229;-71
2021/08/01 04:47:12;;;;;;;1.30;1.20;;;23.80;55.10;;;;;;5103194;28;20192;-71
2021/08/01 04:49:43;;;;;;;1.47;1.33;;;23.80;55.10;;;;;;5102325;28;20205;-71
2021/08/01 04:52:19;;;;;;;2.20;1.50;;;23.80;55.10;;;;;;5088197;28;20192;-70
2021/08/01 04:54:52;;;;;;;1.80;1.70;;;23.80;55.10;;;;;;5101115;28;20202;-70
2021/08/01 04:57:29;;;;;;;1.50;1.40;;;23.70;55.00;;;;;;5094785;28;20184;-70
2021/08/01 04:59:59;;;;;;;1.50;1.40;;;23.70;55.00;;;;;;5103484;28;20708;-70
2021/08/01 05:02:47;;;;;;;1.27;1.17;;;23.70;55.00;;;;;;5093814;28;20245;-71
2021/08/01 05:05:19;;;;;;;1.30;1.20;;;23.70;55.00;;;;;;5101946;28;20672;-71
2021/08/01 05:07:51;;;;;;;1.40;1.30;;;23.80;55.10;;;;;;5101961;28;20208;-71
2021/08/01 05:10:22;;;;;;;1.67;1.40;;;23.70;55.00;;;;;;5096199;28;20579;-71
2021/08/01 05:12:50;;;;;;;1.60;1.50;;;23.70;55.00;;;;;;5100644;28;20768;-71
2021/08/01 05:15:21;;;;;;;1.47;1.37;;;23.70;55.00;;;;;;5103061;28;20193;-71
2021/08/01 05:17:52;;;;;;;1.90;1.70;;;23.70;55.00;;;;;;5097415;28;20228;-72
2021/08/01 05:20:22;;;;;;;1.60;1.50;;;23.70;54.90;;;;;;5106332;28;20218;-70
2021/08/01 05:22:52;;;;;;;1.87;1.70;;;23.70;54.90;;;;;;5102861;28;20661;-70
2021/08/01 05:25:24;;;;;;;1.70;1.50;;;23.70;54.90;;;;;;5105681;28;20212;-70
2021/08/01 05:27:55;;;;;;;1.83;1.73;;;23.70;54.90;;;;;;5101991;28;20215;-71
2021/08/01 05:30:25;;;;;;;1.73;1.63;;;23.70;54.90;;;;;;5091997;28;20706;-71
2021/08/01 05:32:54;;;;;;;2.00;1.70;;;23.70;54.90;;;;;;5098501;28;20409;-71
2021/08/01 05:35:25;;;;;;;2.10;1.90;;;23.70;54.90;;;;;;5090764;28;20207;-71
2021/08/01 05:37:53;;;;;;;2.13;1.93;;;23.70;54.90;;;;;;5103454;28;20203;-72
2021/08/01 05:40:24;;;;;;;1.90;1.80;;;23.70;54.90;;;;;;5108997;28;20551;-70
2021/08/01 05:42:59;;;;;;;2.80;2.20;;;23.70;54.90;;;;;;5105524;28;20658;-70
2021/08/01 05:45:27;;;;;;;2.30;2.20;;;23.70;54.90;;;;;;5106286;28;20225;-70
2021/08/01 05:47:57;;;;;;;2.20;2.00;;;23.70;54.80;;;;;;5103026;28;20427;-70
2021/08/01 05:50:25;;;;;;;2.07;1.97;;;23.70;54.80;;;;;;5106962;28;20646;-70
2021/08/01 05:52:57;;;;;;;2.80;2.60;;;23.70;54.80;;;;;;5104325;28;20207;-70
2021/08/01 05:55:28;;;;;;;2.83;2.63;;;23.70;54.80;;;;;;5105512;28;20206;-70
2021/08/01 05:58:00;;;;;;;2.57;2.37;;;23.70;54.80;;;;;;5108076;28;20192;-70
2021/08/01 06:00:30;;;;;;;2.83;2.63;;;23.70;54.80;;;;;;5105351;28;20209;-70
2021/08/01 06:03:00;;;;;;;3.27;2.97;;;23.70;54.80;;;;;;5109260;28;20207;-70
2021/08/01 06:05:30;;;;;;;2.90;2.60;;;23.70;54.80;;;;;;5102395;28;20907;-70
2021/08/01 06:07:58;;;;;;;3.37;3.07;;;23.70;54.80;;;;;;5096310;28;20203;-70
2021/08/01 06:10:29;;;;;;;3.13;2.93;;;23.70;54.80;;;;;;5100023;28;20614;-70
2021/08/01 06:12:59;;;;;;;3.73;3.30;;;23.70;54.80;;;;;;5108335;28;20205;-70
2021/08/01 06:15:28;;;;;;;3.60;3.30;;;23.70;54.80;;;;;;5098457;28;20214;-72
2021/08/01 06:17:59;;;;;;;3.37;3.17;;;23.70;54.80;;;;;;5096372;28;20254;-71
2021/08/01 06:20:32;;;;;;;3.47;2.97;;;23.70;54.80;;;;;;5100595;28;20216;-72
2021/08/01 06:23:03;;;;;;;3.63;3.30;;;23.70;54.80;;;;;;5108398;28;20189;-71
2021/08/01 06:25:38;;;;;;;3.77;3.37;;;23.70;54.80;;;;;;5101248;28;20527;-72
2021/08/01 06:28:10;;;;;;;3.80;3.40;;;23.70;54.80;;;;;;5101497;28;20215;-72
2021/08/01 06:30:40;;;;;;;4.97;3.80;;;23.70;54.70;;;;;;5105722;28;20200;-71
2021/08/01 06:33:11;;;;;;;4.27;3.97;;;23.70;54.80;;;;;;5105394;28;20208;-71
2021/08/01 06:35:42;;;;;;;4.13;3.80;;;23.70;54.70;;;;;;5099877;28;20197;-71
2021/08/01 06:38:11;;;;;;;4.20;3.90;;;23.70;54.70;;;;;;5104661;28;20211;-70
2021/08/01 06:40:41;;;;;;;4.63;4.27;;;23.70;54.70;;;;;;5105469;28;20216;-71
2021/08/01 06:43:14;;;;;;;4.40;4.00;;;23.70;54.70;;;;;;5097901;28;20208;-71
2021/08/01 06:45:45;;;;;;;4.47;4.13;;;23.70;54.70;;;;;;5107437;28;20224;-71
2021/08/01 06:48:15;;;;;;;4.00;3.70;;;23.70;54.70;;;;;;5101473;28;20215;-70
2021/08/01 06:50:45;;;;;;;4.80;4.40;;;23.70;54.70;;;;;;5108697;28;20641;-72
2021/08/01 06:53:13;;;;;;;4.63;4.23;;;23.70;54.70;;;;;;5101338;28;20204;-71
2021/08/01 06:55:43;;;;;;;4.80;4.40;;;23.70;54.70;;;;;;5116731;28;20192;-70
2021/08/01 06:58:19;;;;;;;4.50;4.07;;;23.70;54.70;;;;;;5126443;28;20577;-70
2021/08/01 07:00:49;;;;;;;4.10;3.80;;;23.70;54.60;;;;;;5110005;28;20223;-71
2021/08/01 07:03:22;;;;;;;4.33;4.03;;;23.70;54.60;;;;;;5088878;28;20196;-72
2021/08/01 07:05:53;;;;;;;4.50;4.20;;;23.70;54.70;;;;;;5103781;28;20200;-71
2021/08/01 07:08:23;;;;;;;4.80;4.40;;;23.70;54.60;;;;;;5108957;28;20192;-70
2021/08/01 07:10:53;;;;;;;4.27;3.97;;;23.70;54.60;;;;;;5106293;28;21819;-70
2021/08/01 07:13:22;;;;;;;4.97;4.57;;;23.70;54.60;;;;;;5108676;28;20695;-71
2021/08/01 07:15:52;;;;;;;4.67;4.27;;;23.70;54.60;;;;;;5107727;28;20792;-70
2021/08/01 07:18:24;;;;;;;4.50;4.10;;;23.70;54.60;;;;;;5100460;28;20585;-70
2021/08/01 07:20:55;;;;;;;4.57;4.27;;;23.70;54.60;;;;;;5099752;28;20220;-71
2021/08/01 07:23:24;;;;;;;4.67;4.30;;;23.70;54.60;;;;;;5095904;28;20265;-71
2021/08/01 07:25:55;;;;;;;4.27;3.97;;;23.70;54.60;;;;;;5103274;28;20204;-70
2021/08/01 07:28:24;;;;;;;4.53;4.20;;;23.70;54.60;;;;;;5106699;28;20295;-70
2021/08/01 07:30:54;;;;;;;4.63;4.23;;;23.70;54.60;;;;;;5095132;28;20212;-70
2021/08/01 07:33:28;;;;;;;4.00;3.70;;;23.70;54.60;;;;;;5106926;28;20204;-71
2021/08/01 07:35:59;;;;;;;4.20;3.80;;;23.70;54.60;;;;;;5101637;28;20201;-70
2021/08/01 07:38:32;;;;;;;3.83;3.53;;;23.70;55.20;;;;;;5106590;28;20227;-70
2021/08/01 07:41:05;;;;;;;4.60;4.30;;;23.70;54.60;;;;;;5090585;28;20216;-71
2021/08/01 07:43:34;;;;;;;4.00;3.70;;;23.70;54.60;;;;;;5101482;28;20192;-71
2021/08/01 07:46:02;;;;;;;4.73;3.80;;;23.70;54.60;;;;;;5103131;28;20228;-71
2021/08/01 07:48:34;;;;;;;4.43;4.03;;;23.70;54.60;;;;;;5104957;28;20257;-71
2021/08/01 07:51:09;;;;;;;4.30;4.00;;;23.70;54.60;;;;;;5123998;27;20196;-72
2021/08/01 07:53:40;;;;;;;4.40;3.97;;;23.70;54.60;;;;;;5098655;28;20711;-71
2021/08/01 07:56:10;;;;;;;3.93;3.63;;;23.70;54.60;;;;;;5107617;28;20879;-71
2021/08/01 07:58:38;;;;;;;3.90;3.60;;;23.70;54.60;;;;;;5102119;28;20215;-71
2021/08/01 08:01:09;;;;;;;4.20;3.70;;;23.70;54.60;;;;;;5107957;28;20300;-69
2021/08/01 08:03:52;;;;;;;4.20;3.80;;;23.70;54.60;;;;;;5101633;28;20331;-71
2021/08/01 08:06:22;;;;;;;4.03;3.73;;;23.70;54.60;;;;;;5107712;28;20215;-72
2021/08/01 08:08:51;;;;;;;3.90;3.60;;;23.70;54.60;;;;;;5105975;28;20216;-72
2021/08/01 08:11:22;;;;;;;3.83;3.40;;;23.70;54.60;;;;;;5101812;28;20394;-72
2021/08/01 08:13:55;;;;;;;4.07;3.77;;;23.70;54.60;;;;;;5101662;28;20204;-72
2021/08/01 08:16:25;;;;;;;3.87;3.57;;;23.70;54.50;;;;;;5099511;28;20196;-72
2021/08/01 08:18:57;;;;;;;4.73;3.53;;;23.70;54.50;;;;;;5095334;28;20269;-72
2021/08/01 08:21:26;;;;;;;3.90;3.53;;;23.70;54.50;;;;;;5101541;28;20222;-74
2021/08/01 08:24:01;;;;;;;4.77;4.10;;;23.70;54.50;;;;;;5106359;28;20202;-72
2021/08/01 08:26:31;;;;;;;3.70;3.40;;;23.70;54.50;;;;;;5102481;28;20200;-72
2021/08/01 08:28:59;;;;;;;4.27;3.87;;;23.70;54.50;;;;;;5100068;28;20216;-72
2021/08/01 08:31:29;;;;;;;3.90;3.60;;;23.70;54.50;;;;;;5097728;28;20250;-72
2021/08/01 08:34:00;;;;;;;3.50;3.20;;;23.70;54.50;;;;;;5086363;28;20235;-72
2021/08/01 08:36:30;;;;;;;4.00;3.60;;;23.70;54.40;;;;;;5101363;28;20192;-72
2021/08/01 08:39:02;;;;;;;3.73;3.43;;;23.70;54.40;;;;;;5106044;28;20685;-72
2021/08/01 08:41:34;;;;;;;3.87;3.57;;;23.70;54.40;;;;;;5107031;28;20653;-71
2021/08/01 08:44:10;;;;;;;4.50;3.80;;;23.70;54.40;;;;;;5111530;28;20196;-71
2021/08/01 08:46:42;;;;;;;4.60;3.10;;;23.70;54.40;;;;;;5096673;28;20196;-72
2021/08/01 08:49:12;;;;;;;3.80;3.50;;;23.70;54.40;;;;;;5102845;28;20254;-72
2021/08/01 08:51:42;;;;;;;4.13;3.73;;;23.70;54.50;;;;;;5107949;28;20230;-72
2021/08/01 08:54:19;;;;;;;3.87;3.40;;;23.70;54.50;;;;;;5105111;28;20196;-71
2021/08/01 08:56:55;;;;;;;3.80;3.50;;;23.70;54.50;;;;;;5112392;28;20196;-71
2021/08/01 08:59:27;;;;;;;4.00;3.60;;;23.70;54.40;;;;;;5106175;28;20243;-71
2021/08/01 09:01:57;;;;;;;3.40;3.10;;;23.70;54.50;;;;;;5109303;28;20816;-72
2021/08/01 09:04:30;;;;;;;3.77;3.40;;;23.70;54.50;;;;;;5104885;28;20181;-72
2021/08/01 09:07:00;;;;;;;3.73;3.43;;;23.70;54.50;;;;;;5102697;28;20427;-71
2021/08/01 09:09:32;;;;;;;3.30;3.10;;;23.70;54.40;;;;;;5104911;28;20254;-71
2021/08/01 09:12:04;;;;;;;3.40;3.10;;;23.70;54.50;;;;;;5106550;28;20226;-72
2021/08/01 09:14:36;;;;;;;4.27;3.60;;;23.70;54.50;;;;;;5104168;28;20199;-72
2021/08/01 09:17:06;;;;;;;3.40;3.10;;;23.70;54.40;;;;;;5091867;28;20204;-72
2021/08/01 09:19:46;;;;;;;3.60;3.30;;;23.70;54.50;;;;;;5106474;28;20229;-72
2021/08/01 09:22:25;;;;;;;4.23;3.30;;;23.70;54.40;;;;;;5101547;28;20587;-71
2021/08/01 09:24:55;;;;;;;3.07;2.87;;;23.70;54.40;;;;;;5109632;28;20208;-71
2021/08/01 09:27:25;;;;;;;3.33;3.03;;;23.70;54.40;;;;;;5099713;28;20193;-72
2021/08/01 09:29:55;;;;;;;3.37;3.07;;;23.70;54.50;;;;;;5099142;28;20731;-72
2021/08/01 09:32:46;;;;;;;3.73;3.10;;;23.70;54.60;;;;;;5103777;28;20196;-71
2021/08/01 09:35:21;;;;;;;3.13;2.93;;;23.70;54.50;;;;;;5107843;28;20192;-71
2021/08/01 09:38:03;;;;;;;3.40;3.10;;;23.70;54.50;;;;;;5105611;28;20191;-71
2021/08/01 09:40:42;;;;;;;3.33;3.03;;;23.70;54.60;;;;;;5102247;28;20592;-71
2021/08/01 09:43:14;;;;;;;3.13;2.87;;;23.70;54.60;;;;;;5105741;28;20669;-72
2021/08/01 09:45:52;;;;;;;3.47;2.80;;;23.70;54.50;;;;;;5101098;28;20229;-72
2021/08/01 09:48:23;;;;;;;3.27;3.07;;;23.70;54.50;;;;;;5109237;28;20629;-72
2021/08/01 09:51:04;;;;;;;3.30;3.00;;;23.70;54.60;;;;;;5101410;28;20205;-71
2021/08/01 09:53:35;;;;;;;3.00;2.80;;;23.70;54.60;;;;;;5083871;28;20233;-70
2021/08/01 09:56:22;;;;;;;3.03;2.73;;;23.70;54.60;;;;;;5099183;28;20209;-70
2021/08/01 09:58:52;;;;;;;3.30;3.00;;;23.70;54.50;;;;;;5102844;28;20274;-70
2021/08/01 10:01:24;;;;;;;2.90;2.70;;;23.70;54.60;;;;;;5107892;28;20223;-71
2021/08/01 10:03:54;;;;;;;3.33;3.03;;;23.70;54.60;;;;;;5106965;28;20215;-71
2021/08/01 10:06:26;;;;;;;3.00;2.80;;;23.70;54.60;;;;;;5096028;28;20210;-73
2021/08/01 10:08:58;;;;;;;2.93;2.60;;;23.70;54.50;;;;;;5104644;28;20211;-72
2021/08/01 10:11:29;;;;;;;2.87;2.67;;;23.70;54.60;;;;;;5103695;28;20206;-71
2021/08/01 10:14:01;;;;;;;3.20;3.00;;;23.70;54.50;;;;;;5101244;28;20208;-71
2021/08/01 10:16:30;;;;;;;3.00;2.60;;;23.70;54.50;;;;;;5105989;28;20257;-71
2021/08/01 10:19:01;;;;;;;3.13;2.87;;;23.80;54.50;;;;;;5099874;28;20200;-71
2021/08/01 10:21:37;;;;;;;3.70;3.40;;;23.80;54.50;;;;;;5110397;28;20208;-72
2021/08/01 10:24:06;;;;;;;2.90;2.70;;;23.80;54.50;;;;;;5105472;28;20243;-72
2021/08/01 10:26:44;;;;;;;3.00;2.80;;;23.80;54.50;;;;;;5092142;28;20201;-71
2021/08/01 10:29:42;;;;;;;3.40;3.10;;;23.80;54.50;;;;;;5102586;28;20269;-71
2021/08/01 10:32:16;;;;;;;2.93;2.73;;;23.80;54.40;;;;;;5099265;28;20223;-70
2021/08/01 10:35:07;;;;;;;3.03;2.73;;;23.80;54.40;;;;;;5102300;28;20185;-71
2021/08/01 10:37:51;;;;;;;3.33;2.90;;;23.80;54.40;;;;;;5106489;28;20257;-71
2021/08/01 10:40:35;;;;;;;2.80;2.60;;;23.80;54.40;;;;;;5104725;28;20240;-71
2021/08/01 10:43:09;;;;;;;2.67;2.47;;;23.80;54.50;;;;;;5101077;28;20574;-72
2021/08/01 10:45:42;;;;;;;3.07;2.87;;;23.90;54.50;;;;;;5106297;28;20222;-73
2021/08/01 10:48:11;;;;;;;3.20;2.67;;;23.90;54.50;;;;;;5104961;28;20200;-72
2021/08/01 10:50:47;;;;;;;3.30;3.00;;;23.90;54.50;;;;;;5100634;28;20212;-72
2021/08/01 10:53:23;;;;;;;3.13;2.93;;;23.90;54.40;;;;;;5108315;28;20226;-71
2021/08/01 10:56:26;;;;;;;3.00;2.70;;;23.90;54.40;;;;;;5097909;28;20642;-73
2021/08/01 10:58:56;;;;;;;3.47;3.17;;;23.90;54.50;;;;;;5109021;28;20215;-73
2021/08/01 11:01:30;;;;;;;3.37;3.17;;;23.90;54.50;;;;;;5102832;28;20213;-71
2021/08/01 11:04:29;;;;;;;3.23;2.97;;;23.90;54.50;;;;;;5107063;28;20728;-70
2021/08/01 11:07:00;;;;;;;3.23;2.93;;;23.90;54.40;;;;;;5103884;28;20212;-72
2021/08/01 11:09:32;;;;;;;3.63;3.30;;;23.90;54.50;;;;;;5099154;28;20193;-73
2021/08/01 11:12:30;;;;;;;3.50;3.20;;;23.90;54.50;;;;;;5102274;28;20210;-72
2021/08/01 11:15:14;;;;;;;3.10;2.90;;;23.90;54.50;;;;;;5103891;28;20216;-72
2021/08/01 11:17:49;;;;;;;3.40;3.10;;;23.90;54.50;;;;;;5107658;28;20294;-73
2021/08/01 11:20:23;;;;;;;3.40;3.10;;;23.90;54.50;;;;;;5099718;28;20220;-72
2021/08/01 11:23:01;;;;;;;3.33;3.03;;;24.00;54.60;;;;;;5102806;27;20570;-72
2021/08/01 11:25:46;;;;;;;3.87;3.47;;;23.90;54.50;;;;;;5104350;28;20198;-73
2021/08/01 11:28:27;;;;;;;3.70;3.40;;;24.00;54.60;;;;;;5104921;28;20257;-72
2021/08/01 11:31:00;;;;;;;3.43;3.13;;;24.00;54.60;;;;;;5099089;28;20200;-70
2021/08/01 11:33:42;;;;;;;3.40;3.10;;;23.90;54.60;;;;;;5102181;28;20272;-70
2021/08/01 11:36:30;;;;;;;3.30;3.10;;;24.00;54.60;;;;;;5090418;28;20271;-69
2021/08/01 11:39:23;;;;;;;3.90;3.60;;;24.00;54.60;;;;;;5103479;28;20219;-69
2021/08/01 11:41:55;;;;;;;3.00;2.80;;;24.00;54.70;;;;;;5108309;28;20220;-69
2021/08/01 11:44:24;;;;;;;4.10;3.10;;;24.00;54.70;;;;;;5093941;28;20223;-69
2021/08/01 11:47:04;;;;;;;3.23;2.93;;;24.00;54.80;;;;;;5095661;28;20414;-70
2021/08/01 11:49:46;;;;;;;3.70;3.40;;;23.90;54.80;;;;;;5103727;28;20309;-70
2021/08/01 11:52:43;;;;;;;3.50;3.20;;;24.00;54.80;;;;;;5083184;28;20222;-70
2021/08/01 11:55:18;;;;;;;3.53;3.23;;;24.00;54.80;;;;;;5109649;28;20199;-70
2021/08/01 11:57:53;;;;;;;3.60;3.30;;;24.00;54.80;;;;;;5100844;28;20783;-71
2021/08/01 12:00:24;;;;;;;4.03;3.40;;;24.00;54.80;;;;;;5104687;28;20196;-70
2021/08/01 12:02:56;;;;;;;3.60;3.30;;;24.00;54.80;;;;;;5095445;28;20216;-70
2021/08/01 12:05:48;;;;;;;3.70;3.27;;;24.00;54.90;;;;;;5094911;28;20264;-70
2021/08/01 12:08:35;;;;;;;4.20;3.47;;;24.00;54.90;;;;;;5104255;28;20220;-71
2021/08/01 12:11:16;;;;;;;4.03;3.50;;;24.00;54.90;;;;;;5101312;28;20200;-70
2021/08/01 12:14:09;;;;;;;3.63;3.33;;;24.00;55.00;;;;;;5105837;28;20698;-70
2021/08/01 12:17:12;;;;;;;3.63;3.33;;;24.10;55.10;;;;;;5098948;28;20666;-70
2021/08/01 12:19:53;;;;;;;4.57;4.00;;;24.00;55.00;;;;;;5071980;28;20209;-71
2021/08/01 12:22:28;;;;;;;4.67;4.00;;;24.00;55.10;;;;;;5102606;28;20216;-70
2021/08/01 12:25:07;;;;;;;3.70;3.40;;;24.00;55.10;;;;;;5104556;28;20192;-70
2021/08/01 12:27:40;;;;;;;4.43;3.60;;;24.00;55.00;;;;;;5108893;28;20203;-70
2021/08/01 12:30:23;;;;;;;3.40;3.10;;;24.10;55.20;;;;;;5107975;28;20621;-70
2021/08/01 12:32:54;;;;;;;4.40;3.60;;;24.10;55.10;;;;;;5113672;28;20200;-70
2021/08/01 12:35:26;;;;;;;3.57;3.27;;;24.10;55.10;;;;;;5106928;28;20208;-71
2021/08/01 12:38:08;;;;;;;4.33;3.93;;;24.10;55.10;;;;;;5105903;27;20228;-70
2021/08/01 12:40:45;;;;;;;4.03;3.67;;;24.10;55.10;;;;;;5107827;28;20668;-70
2021/08/01 12:43:17;;;;;;;3.07;2.77;;;24.10;55.20;;;;;;5112868;28;20184;-70
2021/08/01 12:45:49;;;;;;;4.13;3.60;;;24.10;55.20;;;;;;5105436;28;20225;-71
2021/08/01 12:48:25;;;;;;;4.00;3.23;;;24.10;55.20;;;;;;5093550;28;20203;-71
2021/08/01 12:51:00;;;;;;;3.57;3.27;;;24.20;55.20;;;;;;5109270;28;20199;-71
2021/08/01 12:53:39;;;;;;;4.07;3.30;;;24.10;55.10;;;;;;5081075;28;20217;-71
2021/08/01 12:56:15;;;;;;;3.53;3.23;;;24.10;55.10;;;;;;5098620;28;20275;-71
2021/08/01 12:58:50;;;;;;;3.27;2.97;;;24.10;55.10;;;;;;5095352;28;20195;-71
2021/08/01 13:01:19;;;;;;;3.40;3.03;;;24.10;55.10;;;;;;5100668;28;20222;-71
2021/08/01 13:04:02;;;;;;;3.40;3.10;;;24.10;55.20;;;;;;5102696;28;20188;-71
2021/08/01 13:06:32;;;;;;;3.00;2.80;;;24.10;55.20;;;;;;5105955;28;20206;-71
2021/08/01 13:09:29;;;;;;;3.20;2.90;;;24.20;55.20;;;;;;5109222;28;20184;-71
2021/08/01 13:12:20;;;;;;;3.33;3.03;;;24.20;55.30;;;;;;5110593;28;20204;-71
2021/08/01 13:14:49;;;;;;;3.03;2.80;;;24.20;55.20;;;;;;5115143;28;20196;-71
2021/08/01 13:17:41;;;;;;;3.50;2.70;;;24.10;55.20;;;;;;5104341;27;20822;-71
2021/08/01 13:20:10;;;;;;;2.63;2.43;;;24.20;55.20;;;;;;5099417;28;20215;-71
2021/08/01 13:22:44;;;;;;;2.60;2.40;;;24.10;55.20;;;;;;5106873;28;20267;-71
2021/08/01 13:25:16;;;;;;;2.73;2.50;;;24.20;55.20;;;;;;5112423;28;20219;-71
2021/08/01 13:27:50;;;;;;;3.03;2.80;;;24.20;55.30;;;;;;5109498;28;20533;-70